Time;durP1;ratioP1;P1;durP2;ratioP2;P2;SDS_P1;SDS_P2;PMS_P1;PMS_P2;Temp;Humidity;BMP_temperature;BMP_pressure;BME280_temperature;BME280_humidity;BME280_pressure;Samples;Min_cycle;Max_cycle;Signal;HPM_P1;HPM_P2
2022/05/06 00:01:34;;;;;;;21.93;12.47;;;9.20;99.90;;;;;;5073448;28;20045;-76
2022/05/06 00:04:00;;;;;;;21.47;12.40;;;9.20;99.90;;;;;;5075906;28;20044;-76
2022/05/06 00:06:29;;;;;;;21.13;12.13;;;9.10;99.90;;;;;;5073801;28;20046;-77
2022/05/06 00:08:55;;;;;;;22.87;13.87;;;9.00;99.90;;;;;;5076923;28;20048;-77
2022/05/06 00:11:21;;;;;;;27.23;13.20;;;9.00;99.90;;;;;;5074070;28;20056;-77
2022/05/06 00:13:47;;;;;;;22.53;13.63;;;9.00;99.90;;;;;;5074793;28;20037;-77
2022/05/06 00:16:13;;;;;;;27.87;14.27;;;9.00;99.90;;;;;;5074750;28;20056;-77
2022/05/06 00:18:38;;;;;;;20.97;12.57;;;9.00;99.90;;;;;;5074383;28;20094;-77
2022/05/06 00:21:04;;;;;;;21.67;12.77;;;8.90;99.90;;;;;;5076445;28;20036;-78
2022/05/06 00:23:30;;;;;;;21.13;12.60;;;8.90;99.90;;;;;;5057395;28;20036;-77
2022/05/06 00:25:56;;;;;;;23.30;12.37;;;8.90;99.90;;;;;;5067398;28;20044;-77
2022/05/06 00:28:21;;;;;;;20.57;13.20;;;8.90;99.90;;;;;;5058028;28;20036;-76
2022/05/06 00:30:47;;;;;;;23.03;13.17;;;8.90;99.90;;;;;;5074381;28;20044;-77
2022/05/06 00:33:13;;;;;;;22.63;12.77;;;8.80;99.90;;;;;;5071249;28;20076;-77
2022/05/06 00:35:41;;;;;;;21.27;12.80;;;8.80;99.90;;;;;;5073510;28;20326;-77
2022/05/06 00:38:07;;;;;;;24.73;13.20;;;8.80;99.90;;;;;;5077401;28;20118;-77
2022/05/06 00:40:33;;;;;;;23.77;13.33;;;8.80;99.90;;;;;;5073011;28;20071;-77
2022/05/06 00:42:58;;;;;;;20.50;12.10;;;8.80;99.90;;;;;;5076117;28;20036;-77
2022/05/06 00:45:31;;;;;;;27.43;12.73;;;8.70;99.90;;;;;;5074948;28;20671;-77
2022/05/06 00:47:57;;;;;;;21.43;12.73;;;8.70;99.90;;;;;;5074598;28;20090;-76
2022/05/06 00:50:23;;;;;;;24.67;12.90;;;8.70;99.90;;;;;;5074071;28;20055;-76
2022/05/06 00:52:48;;;;;;;23.27;13.13;;;8.70;99.90;;;;;;5075505;28;20045;-77
2022/05/06 00:55:14;;;;;;;22.40;12.70;;;8.60;99.90;;;;;;5068978;28;20052;-76
2022/05/06 00:57:41;;;;;;;21.23;12.60;;;8.60;99.90;;;;;;5073610;28;20127;-77
2022/05/06 01:00:19;;;;;;;21.87;12.97;;;8.60;99.90;;;;;;5074166;28;20048;-77
2022/05/06 01:02:46;;;;;;;24.07;13.47;;;8.50;99.90;;;;;;5074615;28;20052;-76
2022/05/06 01:05:12;;;;;;;23.63;13.03;;;8.40;99.90;;;;;;5076020;28;20051;-77
2022/05/06 01:07:39;;;;;;;26.50;14.03;;;8.40;99.90;;;;;;5074992;28;20084;-77
2022/05/06 01:10:05;;;;;;;24.17;13.53;;;8.30;99.90;;;;;;5073330;28;20102;-77
2022/05/06 01:12:31;;;;;;;25.73;13.47;;;8.30;99.90;;;;;;5075205;28;20040;-77
2022/05/06 01:14:57;;;;;;;26.47;14.03;;;8.30;99.90;;;;;;5074010;28;20064;-76
2022/05/06 01:17:22;;;;;;;27.50;14.80;;;8.30;99.90;;;;;;5074931;28;20055;-77
2022/05/06 01:19:48;;;;;;;24.30;14.60;;;8.20;99.90;;;;;;5073475;28;20107;-76
2022/05/06 01:22:15;;;;;;;24.20;14.33;;;8.20;99.90;;;;;;5061199;28;20057;-77
2022/05/06 01:24:41;;;;;;;25.57;14.43;;;8.20;99.90;;;;;;5074599;28;20057;-76
2022/05/06 01:27:11;;;;;;;22.97;13.33;;;8.20;99.90;;;;;;5073679;28;20059;-77
2022/05/06 01:29:38;;;;;;;22.40;13.80;;;8.20;99.90;;;;;;5075652;28;20041;-77
2022/05/06 01:32:05;;;;;;;23.77;14.23;;;8.20;99.90;;;;;;5073822;28;20095;-77
2022/05/06 01:34:32;;;;;;;28.70;13.93;;;8.20;99.90;;;;;;5057887;28;20052;-77
2022/05/06 01:37:02;;;;;;;26.07;15.13;;;8.20;99.90;;;;;;5073619;28;20546;-77
2022/05/06 01:39:34;;;;;;;24.77;14.77;;;8.10;99.90;;;;;;5074882;28;20487;-77
2022/05/06 01:42:04;;;;;;;24.90;14.10;;;8.10;99.90;;;;;;5074099;28;20048;-77
2022/05/06 01:44:35;;;;;;;25.73;13.30;;;8.10;99.90;;;;;;5073681;28;20059;-77
2022/05/06 01:47:05;;;;;;;25.77;14.10;;;8.10;99.90;;;;;;5072600;28;20515;-77
2022/05/06 01:49:32;;;;;;;24.33;13.57;;;8.10;99.90;;;;;;5076152;28;20772;-77
2022/05/06 01:51:59;;;;;;;21.17;12.67;;;8.10;99.90;;;;;;5078124;28;20057;-77
2022/05/06 01:54:26;;;;;;;23.77;13.07;;;8.10;99.90;;;;;;5070757;28;20578;-76
2022/05/06 01:56:51;;;;;;;22.77;13.83;;;8.10;99.90;;;;;;5077608;28;20066;-76
2022/05/06 01:59:17;;;;;;;26.60;14.40;;;8.00;99.90;;;;;;5078138;28;20040;-77
2022/05/06 02:01:43;;;;;;;24.97;15.30;;;8.10;99.90;;;;;;5078452;28;20041;-76
2022/05/06 02:06:52;;;;;;;24.83;12.87;;;8.00;99.90;;;;;;5078587;28;20076;-77
2022/05/06 02:09:18;;;;;;;28.60;14.83;;;7.90;99.90;;;;;;5076882;28;20052;-77
2022/05/06 02:11:44;;;;;;;26.00;13.77;;;8.00;99.90;;;;;;5076389;28;20138;-76
2022/05/06 02:14:10;;;;;;;23.73;13.57;;;8.00;99.90;;;;;;5077957;28;20115;-77
2022/05/06 02:16:36;;;;;;;24.27;13.37;;;8.00;99.90;;;;;;5072091;28;20083;-77
2022/05/06 02:19:03;;;;;;;26.73;13.23;;;7.90;99.90;;;;;;5076932;28;20055;-77
2022/05/06 02:21:29;;;;;;;24.40;13.83;;;8.00;99.90;;;;;;5079171;28;20063;-78
2022/05/06 02:23:54;;;;;;;22.43;14.57;;;8.00;99.90;;;;;;5076899;28;20048;-77
2022/05/06 02:26:20;;;;;;;27.47;14.70;;;7.90;99.90;;;;;;5077117;28;20044;-76
2022/05/06 02:28:46;;;;;;;21.60;12.57;;;7.90;99.90;;;;;;5077336;28;20048;-76
2022/05/06 02:33:55;;;;;;;23.47;14.30;;;7.80;99.90;;;;;;5079330;28;20511;-77
2022/05/06 02:36:21;;;;;;;22.00;12.97;;;7.80;99.90;;;;;;5076860;28;20041;-77
2022/05/06 02:38:47;;;;;;;29.90;15.37;;;7.80;99.90;;;;;;5075745;28;20041;-76
2022/05/06 02:41:16;;;;;;;25.50;14.50;;;7.80;99.90;;;;;;5078011;28;20057;-76
2022/05/06 02:43:42;;;;;;;22.47;13.67;;;7.80;99.90;;;;;;5075432;28;20066;-77
2022/05/06 02:46:08;;;;;;;22.37;13.13;;;7.80;99.90;;;;;;5077801;28;20049;-77
2022/05/06 02:48:34;;;;;;;23.63;12.80;;;7.80;99.90;;;;;;5076202;28;20056;-77
2022/05/06 02:51:00;;;;;;;23.83;13.07;;;7.80;99.90;;;;;;5078945;28;20048;-77
2022/05/06 02:53:25;;;;;;;23.83;13.53;;;7.70;99.90;;;;;;5076218;28;20072;-76
2022/05/06 02:55:51;;;;;;;25.20;13.97;;;7.70;99.90;;;;;;5076566;28;20063;-76
2022/05/06 02:58:17;;;;;;;23.87;13.10;;;7.70;99.90;;;;;;5075952;28;20075;-77
2022/05/06 03:00:43;;;;;;;26.97;14.50;;;7.70;99.90;;;;;;5078326;28;20514;-77
2022/05/06 03:03:09;;;;;;;25.70;14.00;;;7.70;99.90;;;;;;5075248;28;20037;-76
2022/05/06 03:05:34;;;;;;;24.07;14.30;;;7.70;99.90;;;;;;5058753;28;20044;-77
2022/05/06 03:08:00;;;;;;;23.83;13.37;;;7.70;99.90;;;;;;5078707;28;20056;-79
2022/05/06 03:10:26;;;;;;;26.63;15.20;;;7.70;99.90;;;;;;5075577;28;20148;-76
2022/05/06 03:12:55;;;;;;;26.20;13.63;;;7.70;99.90;;;;;;5077226;28;20055;-77
2022/05/06 03:15:21;;;;;;;23.77;14.03;;;7.70;99.90;;;;;;5076611;28;20056;-79
2022/05/06 03:17:47;;;;;;;24.73;15.10;;;7.70;99.90;;;;;;5077758;28;20056;-77
2022/05/06 03:20:13;;;;;;;25.47;14.43;;;7.60;99.90;;;;;;5076165;28;20117;-76
2022/05/06 03:22:46;;;;;;;26.17;14.83;;;7.60;99.90;;;;;;5075757;28;20097;-77
2022/05/06 03:25:13;;;;;;;23.47;14.60;;;7.60;99.90;;;;;;5077237;28;20044;-77
2022/05/06 03:30:24;;;;;;;24.30;13.50;;;7.60;99.90;;;;;;5076362;28;20104;-79
2022/05/06 03:32:50;;;;;;;27.10;16.27;;;7.60;99.90;;;;;;5075498;28;20942;-76
2022/05/06 03:35:17;;;;;;;30.50;16.20;;;7.60;99.90;;;;;;5075057;28;20048;-77
2022/05/06 03:37:44;;;;;;;29.30;16.07;;;7.60;99.90;;;;;;5076388;28;20067;-77
2022/05/06 03:40:11;;;;;;;22.07;13.00;;;7.60;99.90;;;;;;5076168;28;20106;-78
2022/05/06 03:42:37;;;;;;;26.50;14.93;;;7.50;99.90;;;;;;5077844;28;20044;-77
2022/05/06 03:45:03;;;;;;;24.03;14.00;;;7.50;99.90;;;;;;5074452;28;20610;-77
2022/05/06 03:47:29;;;;;;;21.63;12.47;;;7.50;99.90;;;;;;5075886;28;20056;-77
2022/05/06 03:52:39;;;;;;;21.70;12.40;;;7.50;99.90;;;;;;5061062;28;20040;-77
2022/05/06 03:55:05;;;;;;;20.53;12.10;;;7.40;99.90;;;;;;5076573;28;20117;-78
2022/05/06 03:57:31;;;;;;;21.93;13.00;;;7.40;99.90;;;;;;5074874;28;20651;-76
2022/05/06 03:59:57;;;;;;;24.03;14.20;;;7.40;99.90;;;;;;5076440;28;20052;-77
2022/05/06 04:02:22;;;;;;;26.13;13.50;;;7.40;99.90;;;;;;5075221;28;20076;-79
2022/05/06 04:04:48;;;;;;;25.23;13.37;;;7.30;99.90;;;;;;5041630;28;20044;-77
2022/05/06 04:07:14;;;;;;;26.50;14.60;;;7.30;99.90;;;;;;5076327;28;20082;-77
2022/05/06 04:09:41;;;;;;;27.30;14.93;;;7.30;99.90;;;;;;5075864;28;20051;-75
2022/05/06 04:12:08;;;;;;;27.37;15.60;;;7.30;99.90;;;;;;5076235;28;20104;-76
2022/05/06 04:14:34;;;;;;;29.50;14.60;;;7.40;99.90;;;;;;5074398;28;20055;-77
2022/05/06 04:17:02;;;;;;;28.37;15.57;;;7.40;99.90;;;;;;5074734;28;20044;-77
2022/05/06 04:19:28;;;;;;;29.63;15.00;;;7.40;99.90;;;;;;5073258;28;20123;-76
2022/05/06 04:24:39;;;;;;;29.67;14.93;;;7.40;99.90;;;;;;5066024;28;20040;-76
2022/05/06 04:27:08;;;;;;;32.97;15.80;;;7.40;99.90;;;;;;5073112;28;20051;-77
2022/05/06 04:29:34;;;;;;;27.43;16.07;;;7.40;99.90;;;;;;5071895;28;20045;-76
2022/05/06 04:32:00;;;;;;;27.77;15.70;;;7.50;99.90;;;;;;5075847;28;20044;-77
2022/05/06 04:34:25;;;;;;;26.30;14.97;;;7.40;99.90;;;;;;5075650;28;20541;-77
2022/05/06 04:36:51;;;;;;;27.67;15.50;;;7.40;99.90;;;;;;5073797;28;20075;-76
2022/05/06 04:39:17;;;;;;;28.13;15.10;;;7.50;99.90;;;;;;5058535;28;20118;-76
2022/05/06 04:41:45;;;;;;;26.47;15.73;;;7.50;99.90;;;;;;5075482;28;20045;-76
2022/05/06 04:44:10;;;;;;;28.23;16.03;;;7.60;99.90;;;;;;5074516;28;20271;-76
2022/05/06 04:46:36;;;;;;;32.13;16.93;;;7.60;99.90;;;;;;5073079;28;20051;-76
2022/05/06 04:49:02;;;;;;;31.13;15.40;;;7.70;99.90;;;;;;5073084;28;20057;-77
2022/05/06 04:51:27;;;;;;;29.07;16.97;;;7.70;99.90;;;;;;5058601;28;20447;-76
2022/05/06 04:53:55;;;;;;;32.70;16.60;;;7.80;99.90;;;;;;5040437;28;20045;-76
2022/05/06 04:56:22;;;;;;;30.93;17.43;;;7.80;99.90;;;;;;5075050;28;20598;-76
2022/05/06 04:58:48;;;;;;;28.40;15.77;;;7.80;99.90;;;;;;5057656;28;20036;-76
2022/05/06 05:01:13;;;;;;;29.00;16.30;;;7.80;99.90;;;;;;5057645;28;20055;-77
2022/05/06 05:03:39;;;;;;;26.67;15.73;;;7.80;99.90;;;;;;5075252;28;20032;-75
2022/05/06 05:06:07;;;;;;;29.40;16.07;;;7.80;99.90;;;;;;5073616;28;20072;-76
2022/05/06 05:08:33;;;;;;;28.67;16.27;;;7.80;99.90;;;;;;5073836;28;20112;-76
2022/05/06 05:11:02;;;;;;;30.07;16.23;;;7.80;99.90;;;;;;5071972;28;20072;-77
2022/05/06 05:13:34;;;;;;;26.97;15.30;;;7.80;99.90;;;;;;5074541;28;20040;-76
2022/05/06 05:16:00;;;;;;;30.52;17.13;;;7.80;99.90;;;;;;5074749;28;20060;-74
2022/05/06 05:18:26;;;;;;;29.53;16.50;;;7.90;99.90;;;;;;5071344;28;20104;-75
2022/05/06 05:20:51;;;;;;;29.53;16.43;;;7.90;99.90;;;;;;5067560;28;20069;-76
2022/05/06 05:23:17;;;;;;;31.03;17.07;;;7.90;99.90;;;;;;5065471;28;20048;-78
2022/05/06 05:25:43;;;;;;;28.13;15.80;;;7.90;99.90;;;;;;5061324;28;20710;-77
2022/05/06 05:28:09;;;;;;;28.23;15.83;;;8.00;99.90;;;;;;5076480;28;20564;-76
2022/05/06 05:30:35;;;;;;;29.70;15.90;;;8.00;99.90;;;;;;5080018;28;20036;-74
2022/05/06 05:33:01;;;;;;;29.70;16.03;;;8.10;99.90;;;;;;5079664;28;20044;-76
2022/05/06 05:35:29;;;;;;;29.77;16.63;;;8.20;99.90;;;;;;5069558;28;20133;-75
2022/05/06 05:37:55;;;;;;;34.43;16.73;;;8.30;99.90;;;;;;5067751;28;20049;-75
2022/05/06 05:40:20;;;;;;;30.20;16.53;;;8.40;99.90;;;;;;5070168;28;20215;-75
2022/05/06 05:42:46;;;;;;;31.00;17.80;;;8.40;99.90;;;;;;5064139;28;20154;-75
2022/05/06 05:50:35;;;;;;;29.17;16.60;;;8.60;99.90;;;;;;5069805;28;20044;-73
2022/05/06 05:53:02;;;;;;;33.53;18.30;;;8.80;99.90;;;;;;5067593;28;20096;-76
2022/05/06 05:55:27;;;;;;;34.87;19.33;;;8.90;99.90;;;;;;5066707;28;20110;-76
2022/05/06 05:57:53;;;;;;;43.37;23.40;;;9.10;99.90;;;;;;5068117;28;20045;-76
2022/05/06 06:00:19;;;;;;;52.27;25.73;;;9.20;99.90;;;;;;5071220;28;20036;-75
2022/05/06 06:02:45;;;;;;;56.13;29.27;;;9.50;99.90;;;;;;5067989;28;20051;-74
2022/05/06 06:05:10;;;;;;;62.37;32.67;;;9.60;99.90;;;;;;5074893;28;20044;-75
2022/05/06 06:07:36;;;;;;;64.20;31.87;;;9.70;99.90;;;;;;5074715;28;20145;-76
2022/05/06 06:10:02;;;;;;;68.10;32.27;;;9.80;99.90;;;;;;5076861;28;20574;-75
2022/05/06 06:12:27;;;;;;;57.63;29.87;;;9.90;99.90;;;;;;5068254;28;20072;-75
2022/05/06 06:14:55;;;;;;;64.50;33.03;;;10.10;99.90;;;;;;5076790;28;20079;-76
2022/05/06 06:17:22;;;;;;;58.83;30.77;;;10.30;99.90;;;;;;5071846;28;20048;-76
2022/05/06 06:19:48;;;;;;;55.93;29.43;;;10.30;99.90;;;;;;5072012;28;20117;-76
2022/05/06 06:22:14;;;;;;;56.00;30.03;;;10.50;99.90;;;;;;5076583;28;20044;-75
2022/05/06 06:24:40;;;;;;;57.57;30.60;;;10.60;99.90;;;;;;5077440;28;20063;-75
2022/05/06 06:27:05;;;;;;;59.77;30.67;;;10.80;99.90;;;;;;5070278;28;20053;-76
2022/05/06 06:29:35;;;;;;;49.57;28.33;;;11.10;99.90;;;;;;5075477;28;20113;-75
2022/05/06 06:32:01;;;;;;;49.47;27.00;;;11.20;99.90;;;;;;5071006;28;20060;-75
2022/05/06 06:34:27;;;;;;;43.00;24.70;;;11.40;99.90;;;;;;5073182;28;20048;-75
2022/05/06 06:36:53;;;;;;;38.83;22.40;;;11.50;99.90;;;;;;5076380;28;20051;-75
2022/05/06 06:39:19;;;;;;;43.03;22.93;;;11.70;99.90;;;;;;5064475;28;20080;-76
2022/05/06 06:41:44;;;;;;;38.93;21.93;;;11.80;99.90;;;;;;5062618;28;20048;-76
2022/05/06 06:44:10;;;;;;;35.43;20.47;;;11.90;99.90;;;;;;5073211;28;20784;-76
2022/05/06 06:46:36;;;;;;;32.57;18.93;;;12.10;99.90;;;;;;5072012;28;20266;-76
2022/05/06 06:49:01;;;;;;;32.97;19.20;;;12.20;99.90;;;;;;5065502;28;20127;-76
2022/05/06 06:51:27;;;;;;;36.23;19.60;;;12.20;99.90;;;;;;5069658;28;20134;-76
2022/05/06 06:53:55;;;;;;;36.77;19.37;;;12.30;99.90;;;;;;5074599;28;20036;-76
2022/05/06 06:56:22;;;;;;;29.50;17.90;;;12.40;99.90;;;;;;5071220;28;20058;-76
2022/05/06 06:58:48;;;;;;;30.37;17.70;;;12.40;99.90;;;;;;5076041;28;20059;-76
2022/05/06 07:01:14;;;;;;;28.47;17.53;;;12.50;99.90;;;;;;5073067;28;20599;-75
2022/05/06 07:03:40;;;;;;;30.33;17.73;;;12.60;99.90;;;;;;5062453;28;20047;-75
2022/05/06 07:11:52;;;;;;;27.93;17.07;;;12.60;99.90;;;;;;5071208;28;20056;-76
2022/05/06 07:14:18;;;;;;;31.03;18.40;;;12.60;99.90;;;;;;5059681;28;20045;-76
2022/05/06 07:16:44;;;;;;;27.47;17.17;;;12.60;99.90;;;;;;5062059;28;20048;-75
2022/05/06 07:19:10;;;;;;;27.13;17.93;;;12.60;99.90;;;;;;5062960;28;20056;-74
2022/05/06 07:21:38;;;;;;;29.33;18.47;;;12.60;99.90;;;;;;5074724;28;20069;-75
2022/05/06 07:24:04;;;;;;;29.90;18.30;;;12.50;99.90;;;;;;5073973;28;20048;-75
2022/05/06 07:26:30;;;;;;;32.30;19.10;;;12.60;99.90;;;;;;5062644;28;20044;-75
2022/05/06 07:28:56;;;;;;;30.87;19.33;;;12.60;99.90;;;;;;5074929;28;20123;-74
2022/05/06 07:31:22;;;;;;;33.53;19.97;;;12.70;99.90;;;;;;5074559;28;20104;-74
2022/05/06 07:33:48;;;;;;;33.37;19.73;;;12.80;99.90;;;;;;5070929;28;20072;-75
2022/05/06 07:36:14;;;;;;;35.87;20.20;;;12.90;99.90;;;;;;5067753;28;20575;-73
2022/05/06 07:38:40;;;;;;;34.07;19.97;;;13.10;99.90;;;;;;5064530;28;20044;-79
2022/05/06 07:41:05;;;;;;;39.03;20.93;;;13.20;99.90;;;;;;5075610;28;20093;-75
2022/05/06 07:43:31;;;;;;;35.93;21.37;;;13.40;99.90;;;;;;5076049;28;20037;-75
2022/05/06 07:45:57;;;;;;;36.57;20.87;;;13.50;99.90;;;;;;5068146;28;20056;-74
2022/05/06 07:48:22;;;;;;;35.27;20.43;;;13.60;99.90;;;;;;5068339;28;20053;-74
2022/05/06 07:50:48;;;;;;;30.87;18.93;;;13.70;99.90;;;;;;5075734;28;20080;-75
2022/05/06 07:53:15;;;;;;;34.07;20.53;;;13.60;99.90;;;;;;5073798;28;20041;-75
2022/05/06 07:55:42;;;;;;;31.97;19.47;;;13.60;99.90;;;;;;5060048;28;20049;-74
2022/05/06 07:58:08;;;;;;;34.47;20.87;;;13.80;99.90;;;;;;5069241;28;20036;-74
2022/05/06 08:00:35;;;;;;;34.53;20.90;;;13.80;99.90;;;;;;5072931;28;20048;-75
2022/05/06 08:05:49;;;;;;;33.63;20.23;;;13.90;99.90;;;;;;5073812;28;20053;-74
2022/05/06 08:08:15;;;;;;;37.30;21.33;;;14.00;99.90;;;;;;5073013;28;20049;-75
2022/05/06 08:10:41;;;;;;;33.17;20.27;;;14.10;99.90;;;;;;5066361;28;20068;-75
2022/05/06 08:13:07;;;;;;;35.70;22.03;;;14.10;99.90;;;;;;5075477;28;20503;-74
2022/05/06 08:15:33;;;;;;;36.10;21.10;;;14.10;99.90;;;;;;5074006;28;20041;-74
2022/05/06 08:17:59;;;;;;;34.83;20.93;;;14.20;99.90;;;;;;5064206;28;20287;-74
2022/05/06 08:20:25;;;;;;;34.60;21.27;;;14.30;99.90;;;;;;5067724;28;20036;-74
2022/05/06 08:22:50;;;;;;;33.07;20.83;;;14.30;99.90;;;;;;5066974;28;20842;-74
2022/05/06 08:25:16;;;;;;;31.53;19.77;;;14.40;99.90;;;;;;5068771;28;20535;-74
2022/05/06 08:27:43;;;;;;;29.87;19.17;;;14.60;99.90;;;;;;5068010;28;20041;-74
2022/05/06 08:30:14;;;;;;;28.57;18.63;;;14.80;99.90;;;;;;5074447;28;20539;-75
2022/05/06 08:32:40;;;;;;;27.97;17.90;;;15.00;99.90;;;;;;5067732;28;20426;-76
2022/05/06 08:35:07;;;;;;;25.83;16.73;;;15.00;99.90;;;;;;5066166;28;20053;-76
2022/05/06 08:37:43;;;;;;;32.83;20.20;;;15.20;99.90;;;;;;5061698;28;20037;-74
2022/05/06 08:40:19;;;;;;;28.63;17.33;;;15.30;99.90;;;;;;5054770;28;20076;-73
2022/05/06 08:42:46;;;;;;;27.13;17.17;;;15.50;99.90;;;;;;5063659;28;20048;-73
2022/05/06 08:50:52;;;;;;;24.90;15.98;;;15.90;99.90;;;;;;5067856;28;20512;-74
2022/05/06 08:53:22;;;;;;;22.98;14.45;;;15.80;99.90;;;;;;5060565;28;20100;-73
2022/05/06 08:55:55;;;;;;;22.98;14.50;;;16.00;99.90;;;;;;5068301;28;20131;-73
2022/05/06 08:58:22;;;;;;;23.20;14.68;;;16.10;99.90;;;;;;5063568;28;20044;-73
2022/05/06 09:00:49;;;;;;;22.40;14.05;;;16.20;99.90;;;;;;5065955;28;20063;-73
2022/05/06 09:03:15;;;;;;;20.73;13.60;;;16.40;99.90;;;;;;5065980;28;20045;-73
2022/05/06 09:05:49;;;;;;;19.80;13.20;;;16.50;99.90;;;;;;5068504;28;20052;-74
2022/05/06 09:08:15;;;;;;;19.42;12.23;;;16.70;99.90;;;;;;5068552;28;20040;-73
2022/05/06 09:10:40;;;;;;;17.65;11.25;;;16.70;99.90;;;;;;5071244;28;20048;-74
2022/05/06 09:13:06;;;;;;;17.83;10.70;;;16.90;99.90;;;;;;5073642;28;20137;-76
2022/05/06 09:18:22;;;;;;;13.00;9.35;;;17.10;99.90;;;;;;5070848;28;20797;-75
2022/05/06 09:20:49;;;;;;;15.23;9.75;;;17.20;99.90;;;;;;5075254;28;20040;-78
2022/05/06 09:23:33;;;;;;;15.93;9.80;;;17.40;99.90;;;;;;5064342;28;20041;-75
2022/05/06 09:25:59;;;;;;;14.20;10.20;;;17.50;99.90;;;;;;5065626;28;20045;-75
2022/05/06 09:28:27;;;;;;;12.80;9.40;;;17.60;99.90;;;;;;5065288;28;20040;-74
2022/05/06 09:31:10;;;;;;;11.40;9.13;;;17.80;99.90;;;;;;5064128;28;20035;-74
2022/05/06 09:33:46;;;;;;;11.90;8.48;;;18.10;99.90;;;;;;5075329;28;20062;-74
2022/05/06 09:36:26;;;;;;;8.80;6.03;;;18.40;99.90;;;;;;5074177;28;20059;-74
2022/05/06 09:39:06;;;;;;;7.40;5.90;;;18.50;99.90;;;;;;5058596;28;20074;-74
2022/05/06 09:41:35;;;;;;;5.82;5.22;;;18.70;99.90;;;;;;5068261;28;20120;-74
2022/05/06 09:44:03;;;;;;;6.68;4.63;;;18.60;99.90;;;;;;5061488;28;20464;-73
2022/05/06 09:46:29;;;;;;;7.68;5.10;;;18.50;99.90;;;;;;5066338;28;20047;-73
2022/05/06 09:48:56;;;;;;;7.60;5.20;;;18.30;99.90;;;;;;5070924;28;20076;-74
2022/05/06 09:51:34;;;;;;;5.82;4.50;;;18.10;99.90;;;;;;5077858;28;20137;-74
2022/05/06 09:54:01;;;;;;;5.82;4.68;;;17.90;99.90;;;;;;5075018;28;20506;-73
2022/05/06 09:56:27;;;;;;;4.85;3.95;;;17.90;99.90;;;;;;5074818;28;20041;-73
2022/05/06 09:58:55;;;;;;;4.95;4.35;;;18.10;99.90;;;;;;5067230;28;20045;-73
2022/05/06 10:01:21;;;;;;;3.40;3.10;;;18.30;99.90;;;;;;5073513;28;20055;-73
2022/05/06 10:03:47;;;;;;;3.47;3.17;;;18.40;99.90;;;;;;5074514;28;20075;-74
2022/05/06 10:06:13;;;;;;;5.85;2.97;;;18.50;99.90;;;;;;5073657;28;20048;-73
2022/05/06 10:08:49;;;;;;;4.85;3.30;;;18.60;99.90;;;;;;5078029;28;20041;-73
2022/05/06 10:11:21;;;;;;;3.83;3.47;;;18.80;99.90;;;;;;5077626;28;20060;-74
2022/05/06 10:13:47;;;;;;;;;;;18.70;99.90;;;;;;5076392;28;20080;-74
2022/05/06 10:16:13;;;;;;;2.38;2.00;;;18.60;99.90;;;;;;5078073;28;20436;-73
2022/05/06 10:18:43;;;;;;;2.83;2.53;;;18.80;99.90;;;;;;5076494;28;20064;-74
2022/05/06 10:21:13;;;;;;;5.50;2.97;;;19.00;99.90;;;;;;5078760;28;20052;-73
2022/05/06 10:23:46;;;;;;;3.92;3.08;;;19.10;99.90;;;;;;5076379;28;20040;-74
2022/05/06 10:26:37;;;;;;;4.72;4.22;;;19.30;99.90;;;;;;5078244;28;20072;-74
2022/05/06 10:34:36;;;;;;;4.22;2.95;;;19.40;99.90;;;;;;5077978;28;20044;-74
2022/05/06 10:37:13;;;;;;;3.30;3.00;;;19.50;99.90;;;;;;5077384;28;20507;-74
2022/05/06 10:39:39;;;;;;;3.28;2.85;;;19.70;99.90;;;;;;5076620;28;20131;-73
2022/05/06 10:42:16;;;;;;;3.85;3.45;;;19.60;99.90;;;;;;5078849;28;20095;-73
2022/05/06 10:44:49;;;;;;;4.30;3.90;;;19.60;99.90;;;;;;5076894;28;20550;-73
2022/05/06 10:47:15;;;;;;;4.28;3.88;;;19.70;99.90;;;;;;5077229;28;20163;-74
2022/05/06 10:49:46;;;;;;;4.35;3.95;;;19.80;99.90;;;;;;5073905;28;20102;-73
2022/05/06 10:52:23;;;;;;;3.95;3.55;;;19.90;99.90;;;;;;5072168;28;20095;-74
2022/05/06 10:54:58;;;;;;;4.13;3.70;;;20.10;99.90;;;;;;5070287;28;20049;-73
2022/05/06 10:57:26;;;;;;;4.53;3.40;;;20.30;99.90;;;;;;5065519;28;20051;-73
2022/05/06 10:59:57;;;;;;;4.07;3.40;;;20.40;99.90;;;;;;5078314;28;20119;-74
2022/05/06 11:02:34;;;;;;;3.50;3.20;;;20.70;99.90;;;;;;5077649;28;20059;-73
2022/05/06 11:05:01;;;;;;;5.25;4.28;;;20.80;99.90;;;;;;5073897;28;20045;-74
2022/05/06 11:07:28;;;;;;;21.35;5.00;;;20.90;99.90;;;;;;5074152;28;20049;-76
2022/05/06 11:09:54;;;;;;;4.80;3.38;;;21.00;99.90;;;;;;5061173;28;20174;-74
2022/05/06 11:12:56;;;;;;;4.53;3.78;;;21.20;99.90;;;;;;5072405;28;20593;-74
2022/05/06 11:15:23;;;;;;;;;;;21.20;99.90;;;;;;5068552;28;20049;-73
2022/05/06 11:17:50;;;;;;;4.75;3.50;;;20.90;99.90;;;;;;5071811;28;20650;-73
2022/05/06 11:20:33;;;;;;;4.35;3.95;;;20.80;99.90;;;;;;5066351;28;20037;-74
2022/05/06 11:23:03;;;;;;;8.23;3.83;;;20.90;99.90;;;;;;5065075;28;20044;-74
2022/05/06 11:25:37;;;;;;;5.10;4.40;;;21.00;99.90;;;;;;5073021;28;20044;-73
2022/05/06 11:28:14;;;;;;;4.88;4.45;;;21.00;99.90;;;;;;5066555;28;20133;-73
2022/05/06 11:30:45;;;;;;;5.22;4.72;;;21.00;99.70;;;;;;5071979;28;20057;-73
2022/05/06 11:33:20;;;;;;;4.50;4.10;;;21.10;98.30;;;;;;5074909;28;20104;-73
2022/05/06 11:35:48;;;;;;;4.53;4.13;;;21.10;92.00;;;;;;5073371;28;20491;-74
2022/05/06 11:38:14;;;;;;;5.47;4.22;;;21.10;99.90;;;;;;5069811;28;20048;-74
2022/05/06 11:40:40;;;;;;;6.57;3.88;;;21.30;99.90;;;;;;5057733;28;20111;-74
2022/05/06 11:43:21;;;;;;;4.88;3.42;;;21.30;99.90;;;;;;5075057;28;20044;-73
2022/05/06 11:48:39;;;;;;;5.03;4.57;;;21.40;99.90;;;;;;5059591;28;20061;-73
2022/05/06 11:51:06;;;;;;;4.30;3.90;;;21.60;97.60;;;;;;5062160;28;20056;-73
2022/05/06 11:53:32;;;;;;;3.70;3.25;;;21.70;95.00;;;;;;5067259;28;20053;-74
2022/05/06 11:55:58;;;;;;;3.70;3.40;;;21.80;95.10;;;;;;5072926;28;20071;-74
2022/05/06 11:58:25;;;;;;;3.30;2.92;;;22.00;93.10;;;;;;5073270;28;20602;-73
2022/05/06 12:00:53;;;;;;;4.80;3.28;;;21.90;80.00;;;;;;5073765;28;20140;-73
2022/05/06 12:03:19;;;;;;;3.70;3.08;;;21.90;91.20;;;;;;5075670;28;20049;-73
2022/05/06 12:06:07;;;;;;;3.33;2.70;;;22.00;90.30;;;;;;5074925;28;20072;-74
2022/05/06 12:08:35;;;;;;;3.35;2.90;;;22.10;72.00;;;;;;5075422;28;20044;-73
2022/05/06 12:11:06;;;;;;;2.78;2.50;;;21.90;71.70;;;;;;5076492;28;20048;-73
2022/05/06 12:13:38;;;;;;;3.00;2.50;;;21.70;69.50;;;;;;5069375;28;20051;-73
2022/05/06 12:16:12;;;;;;;2.95;2.60;;;22.00;74.50;;;;;;5067292;28;20051;-73
2022/05/06 12:18:51;;;;;;;4.53;2.67;;;22.10;63.20;;;;;;5069336;28;20044;-73
2022/05/06 12:21:19;;;;;;;4.30;2.58;;;22.20;63.30;;;;;;5059612;28;20037;-73
2022/05/06 12:23:59;;;;;;;2.97;2.10;;;22.30;68.80;;;;;;5068918;28;20045;-73
2022/05/06 12:26:36;;;;;;;2.28;1.73;;;22.40;61.90;;;;;;5067898;28;20056;-74
2022/05/06 12:29:04;;;;;;;3.58;1.55;;;22.30;59.10;;;;;;5073607;28;20102;-73
2022/05/06 12:31:32;;;;;;;2.80;2.15;;;22.10;61.80;;;;;;5055319;28;20051;-74
2022/05/06 12:34:07;;;;;;;2.58;1.98;;;22.00;59.70;;;;;;5075526;28;20128;-74
2022/05/06 12:36:34;;;;;;;2.63;1.55;;;22.00;58.70;;;;;;5071406;28;20082;-74
2022/05/06 12:39:00;;;;;;;1.88;1.55;;;22.10;60.30;;;;;;5075554;28;20048;-75
2022/05/06 12:41:34;;;;;;;2.55;1.85;;;22.20;61.10;;;;;;5075430;28;20066;-73
2022/05/06 12:44:18;;;;;;;2.85;1.80;;;22.40;60.80;;;;;;5065532;28;20078;-73
2022/05/06 12:46:44;;;;;;;1.92;1.70;;;22.40;58.50;;;;;;5076575;28;20040;-74
2022/05/06 12:51:57;;;;;;;3.03;1.60;;;22.50;59.50;;;;;;5072022;28;20119;-73
2022/05/06 12:54:25;;;;;;;1.40;1.30;;;22.50;60.40;;;;;;5072628;28;20087;-73
2022/05/06 12:56:51;;;;;;;3.92;1.38;;;22.50;58.70;;;;;;5072989;28;20432;-74
2022/05/06 12:59:17;;;;;;;3.28;1.70;;;22.50;58.10;;;;;;5072546;28;20496;-73
2022/05/06 13:01:43;;;;;;;3.28;1.65;;;22.20;57.60;;;;;;5062065;28;20070;-74
2022/05/06 13:04:09;;;;;;;2.03;1.30;;;22.00;58.50;;;;;;5073684;28;20047;-74
2022/05/06 13:06:34;;;;;;;5.05;1.40;;;22.00;59.10;;;;;;5069176;28;20040;-74
2022/05/06 13:09:00;;;;;;;2.97;1.52;;;22.10;60.40;;;;;;5071991;28;20044;-73
2022/05/06 13:11:26;;;;;;;4.18;2.00;;;22.30;60.10;;;;;;5075504;28;20044;-73
2022/05/06 13:13:52;;;;;;;3.33;2.03;;;22.20;59.70;;;;;;5074174;28;20052;-73
2022/05/06 13:16:18;;;;;;;2.05;1.85;;;22.40;61.50;;;;;;5076745;28;20045;-73
2022/05/06 13:18:44;;;;;;;4.15;2.10;;;22.30;60.90;;;;;;5074376;28;20056;-73
2022/05/06 13:21:10;;;;;;;3.30;1.50;;;22.00;61.00;;;;;;5061386;28;20824;-73
2022/05/06 13:23:37;;;;;;;3.42;1.50;;;22.10;62.30;;;;;;5061727;28;20056;-73
2022/05/06 13:26:03;;;;;;;2.05;1.38;;;22.20;61.60;;;;;;5071439;28;20049;-74
2022/05/06 13:28:30;;;;;;;4.50;1.38;;;22.40;61.10;;;;;;5067316;28;20109;-73